KAC121 OMDB-OKKK
Flight info
| Callsign | KAC121 |
|---|---|
| Flight time | 1h 12m |
| Altitude | 30000 |
| Route | NABIX P699 OXARI G462 TUMAK L557 VELAK L602 MOGAS M600 RAMSI A453 KUMBO/N0376F240 A453 DEBTI |
| Aircraft | A320/M-SDE3FGHIRWY/LB1 |
Departure
| Time | 2026-05-07 16:48 |
|---|---|
| Airport | Dubai International Airport (OMDB) |
Arrival
| Time | 2026-05-07 18:00 |
|---|---|
| Airport | Kuwait International Airport (OKKK) |
| Time | Latitude | Longitude | Altitude | Speed | Heading |
|---|---|---|---|---|---|
| 2026-05-07 15:56 | 25.25838 | 55.34565 | 23 ft | 0 kts | 211° |
| 2026-05-07 16:32 | 25.25859 | 55.34579 | 24 ft | 4 kts | 211° |
| 2026-05-07 16:32 | 25.25882 | 55.34595 | 22 ft | 4 kts | 210° |
| 2026-05-07 16:33 | 25.25907 | 55.34607 | 22 ft | 4 kts | 195° |
| 2026-05-07 16:33 | 25.25932 | 55.34610 | 23 ft | 4 kts | 161° |
| 2026-05-07 16:33 | 25.25945 | 55.34602 | 23 ft | 2 kts | 123° |
| 2026-05-07 16:33 | 25.25949 | 55.34596 | 22 ft | 0 kts | 122° |
| 2026-05-07 16:37 | 25.25928 | 55.34633 | 24 ft | 10 kts | 120° |
| 2026-05-07 16:37 | 25.25938 | 55.34694 | 23 ft | 8 kts | 45° |
| 2026-05-07 16:37 | 25.25960 | 55.34739 | 21 ft | 6 kts | 83° |
| 2026-05-07 16:38 | 25.25950 | 55.34778 | 21 ft | 5 kts | 114° |
| 2026-05-07 16:38 | 25.25937 | 55.34806 | 23 ft | 4 kts | 122° |
| 2026-05-07 16:38 | 25.25910 | 55.34850 | 21 ft | 10 kts | 125° |
| 2026-05-07 16:38 | 25.25864 | 55.34931 | 21 ft | 15 kts | 120° |
| 2026-05-07 16:39 | 25.25837 | 55.35049 | 23 ft | 14 kts | 58° |
| 2026-05-07 16:39 | 25.25915 | 55.35104 | 21 ft | 14 kts | 32° |
| 2026-05-07 16:39 | 25.25988 | 55.35155 | 21 ft | 11 kts | 31° |
| 2026-05-07 16:39 | 25.26049 | 55.35196 | 22 ft | 9 kts | 31° |
| 2026-05-07 16:40 | 25.26098 | 55.35229 | 22 ft | 7 kts | 31° |
| 2026-05-07 16:40 | 25.26135 | 55.35254 | 22 ft | 5 kts | 31° |
| 2026-05-07 16:40 | 25.26161 | 55.35272 | 25 ft | 3 kts | 31° |
| 2026-05-07 16:40 | 25.26175 | 55.35281 | 23 ft | 1 kts | 31° |
| 2026-05-07 16:41 | 25.26177 | 55.35282 | 23 ft | 0 kts | 31° |
| 2026-05-07 16:41 | 25.26171 | 55.35291 | 23 ft | 4 kts | 131° |
| 2026-05-07 16:41 | 25.26107 | 55.35350 | 22 ft | 19 kts | 127° |
| 2026-05-07 16:41 | 25.26020 | 55.35501 | 22 ft | 25 kts | 122° |
| 2026-05-07 16:42 | 25.25927 | 55.35666 | 22 ft | 26 kts | 122° |
| 2026-05-07 16:42 | 25.25830 | 55.35839 | 22 ft | 27 kts | 122° |
| 2026-05-07 16:42 | 25.25728 | 55.36018 | 22 ft | 28 kts | 122° |
| 2026-05-07 16:42 | 25.25625 | 55.36203 | 25 ft | 29 kts | 121° |
| 2026-05-07 16:43 | 25.25517 | 55.36393 | 22 ft | 30 kts | 122° |
| 2026-05-07 16:43 | 25.25408 | 55.36587 | 23 ft | 31 kts | 120° |
| 2026-05-07 16:43 | 25.25295 | 55.36791 | 22 ft | 31 kts | 122° |
| 2026-05-07 16:43 | 25.25180 | 55.36994 | 22 ft | 32 kts | 121° |
| 2026-05-07 16:44 | 25.25064 | 55.37201 | 23 ft | 32 kts | 122° |
| 2026-05-07 16:44 | 25.24945 | 55.37410 | 25 ft | 32 kts | 122° |
| 2026-05-07 16:44 | 25.24830 | 55.37615 | 24 ft | 29 kts | 121° |
| 2026-05-07 16:44 | 25.24723 | 55.37805 | 22 ft | 30 kts | 122° |
| 2026-05-07 16:45 | 25.24666 | 55.37936 | 22 ft | 11 kts | 80° |
| 2026-05-07 16:45 | 25.24714 | 55.37988 | 24 ft | 8 kts | 34° |
| 2026-05-07 16:45 | 25.24754 | 55.38015 | 27 ft | 5 kts | 31° |
| 2026-05-07 16:45 | 25.24776 | 55.38030 | 25 ft | 3 kts | 31° |
| 2026-05-07 16:46 | 25.24789 | 55.38037 | 25 ft | 1 kts | 21° |
| 2026-05-07 16:46 | 25.24807 | 55.38026 | 29 ft | 7 kts | 314° |
| 2026-05-07 16:46 | 25.24845 | 55.37955 | 25 ft | 12 kts | 301° |
| 2026-05-07 16:46 | 25.24881 | 55.37891 | 30 ft | 0 kts | 301° |
| 2026-05-07 16:47 | 25.24923 | 55.37814 | 26 ft | 38 kts | 301° |
| 2026-05-07 16:47 | 25.25191 | 55.37331 | 27 ft | 106 kts | 301° |
| 2026-05-07 16:47 | 25.25668 | 55.36471 | 27 ft | 158 kts | 301° |
| 2026-05-07 16:48 | 25.26278 | 55.35365 | 402 ft | 171 kts | 301° |
| 2026-05-07 16:48 | 25.26903 | 55.34243 | 1069 ft | 172 kts | 301° |
| 2026-05-07 16:48 | 25.27544 | 55.33087 | 1609 ft | 183 kts | 301° |
| 2026-05-07 16:48 | 25.28227 | 55.31860 | 2134 ft | 190 kts | 301° |
| 2026-05-07 16:49 | 25.28918 | 55.30598 | 2675 ft | 194 kts | 297° |
| 2026-05-07 16:49 | 25.29498 | 55.29241 | 3239 ft | 196 kts | 290° |
| 2026-05-07 16:49 | 25.29918 | 55.27810 | 3835 ft | 196 kts | 283° |
| 2026-05-07 16:49 | 25.30125 | 55.26310 | 4346 ft | 202 kts | 265° |
| 2026-05-07 16:50 | 25.29657 | 55.24806 | 4659 ft | 217 kts | 233° |
| 2026-05-07 16:50 | 25.28493 | 55.23790 | 5326 ft | 212 kts | 200° |
| 2026-05-07 16:50 | 25.27032 | 55.23399 | 5767 ft | 225 kts | 193° |
| 2026-05-07 16:50 | 25.25650 | 55.22666 | 6388 ft | 221 kts | 229° |
| 2026-05-07 16:51 | 25.24887 | 55.21204 | 6922 ft | 227 kts | 250° |
| 2026-05-07 16:51 | 25.24397 | 55.19463 | 7214 ft | 245 kts | 255° |
| 2026-05-07 16:51 | 25.23928 | 55.17623 | 7813 ft | 251 kts | 255° |
| 2026-05-07 16:51 | 25.23692 | 55.15694 | 8377 ft | 261 kts | 270° |
| 2026-05-07 16:52 | 25.23631 | 55.13604 | 8623 ft | 282 kts | 265° |
| 2026-05-07 16:52 | 25.23427 | 55.11437 | 9172 ft | 291 kts | 263° |
| 2026-05-07 16:52 | 25.23140 | 55.09210 | 9849 ft | 295 kts | 261° |
| 2026-05-07 16:52 | 25.22815 | 55.06928 | 10262 ft | 310 kts | 261° |
| 2026-05-07 16:53 | 25.22462 | 55.04495 | 10426 ft | 332 kts | 261° |
| 2026-05-07 16:53 | 25.22093 | 55.01938 | 10897 ft | 340 kts | 261° |
| 2026-05-07 16:53 | 25.21722 | 54.99336 | 11511 ft | 345 kts | 261° |
| 2026-05-07 16:53 | 25.21355 | 54.96708 | 12138 ft | 348 kts | 261° |
| 2026-05-07 16:54 | 25.21003 | 54.94049 | 12750 ft | 351 kts | 263° |
| 2026-05-07 16:54 | 25.20744 | 54.91356 | 13352 ft | 355 kts | 265° |
| 2026-05-07 16:54 | 25.20551 | 54.88627 | 13945 ft | 358 kts | 266° |
| 2026-05-07 16:54 | 25.20386 | 54.85867 | 14506 ft | 361 kts | 266° |
| 2026-05-07 16:55 | 25.20220 | 54.83086 | 15074 ft | 364 kts | 266° |
| 2026-05-07 16:55 | 25.20044 | 54.80318 | 15611 ft | 367 kts | 266° |
| 2026-05-07 16:55 | 25.19856 | 54.77499 | 16141 ft | 370 kts | 266° |
| 2026-05-07 16:55 | 25.19887 | 54.74646 | 16651 ft | 373 kts | 274° |
| 2026-05-07 16:56 | 25.20056 | 54.71776 | 17166 ft | 376 kts | 274° |
| 2026-05-07 16:56 | 25.20225 | 54.68881 | 17660 ft | 379 kts | 274° |
| 2026-05-07 16:56 | 25.20566 | 54.63025 | 18632 ft | 385 kts | 274° |
| 2026-05-07 16:57 | 25.20738 | 54.60062 | 19107 ft | 388 kts | 274° |
| 2026-05-07 16:57 | 25.20911 | 54.57082 | 19575 ft | 391 kts | 273° |
| 2026-05-07 16:57 | 25.21095 | 54.54077 | 20042 ft | 393 kts | 276° |
| 2026-05-07 16:57 | 25.21609 | 54.51099 | 20483 ft | 396 kts | 285° |
| 2026-05-07 16:58 | 25.22357 | 54.48154 | 20930 ft | 399 kts | 285° |
| 2026-05-07 16:58 | 25.23108 | 54.45195 | 21372 ft | 402 kts | 285° |
| 2026-05-07 16:58 | 25.23861 | 54.42211 | 21802 ft | 405 kts | 285° |
| 2026-05-07 16:58 | 25.24620 | 54.39202 | 22214 ft | 407 kts | 285° |
| 2026-05-07 16:59 | 25.25370 | 54.36224 | 22638 ft | 410 kts | 285° |
| 2026-05-07 16:59 | 25.26136 | 54.33176 | 23044 ft | 413 kts | 285° |
| 2026-05-07 16:59 | 25.26906 | 54.30115 | 23428 ft | 415 kts | 285° |
| 2026-05-07 16:59 | 25.27677 | 54.27031 | 23803 ft | 418 kts | 285° |
| 2026-05-07 17:00 | 25.28445 | 54.23927 | 24171 ft | 420 kts | 285° |
| 2026-05-07 17:00 | 25.29214 | 54.20803 | 24526 ft | 422 kts | 285° |
| 2026-05-07 17:00 | 25.29986 | 54.17661 | 24871 ft | 425 kts | 285° |
| 2026-05-07 17:00 | 25.30763 | 54.14495 | 25203 ft | 427 kts | 285° |
| 2026-05-07 17:01 | 25.31526 | 54.11313 | 25527 ft | 429 kts | 284° |
| 2026-05-07 17:01 | 25.32239 | 54.08096 | 25797 ft | 433 kts | 283° |
| 2026-05-07 17:01 | 25.32925 | 54.04831 | 25919 ft | 439 kts | 282° |
| 2026-05-07 17:01 | 25.33593 | 54.01559 | 26041 ft | 445 kts | 282° |
| 2026-05-07 17:02 | 25.34272 | 53.98206 | 26176 ft | 450 kts | 282° |
| 2026-05-07 17:02 | 25.34966 | 53.94810 | 26299 ft | 454 kts | 282° |
| 2026-05-07 17:02 | 25.35676 | 53.91385 | 26426 ft | 459 kts | 283° |
| 2026-05-07 17:02 | 25.36401 | 53.87934 | 26553 ft | 462 kts | 283° |
| 2026-05-07 17:03 | 25.37137 | 53.84460 | 26679 ft | 466 kts | 283° |
| 2026-05-07 17:03 | 25.37879 | 53.80961 | 26804 ft | 469 kts | 283° |
| 2026-05-07 17:03 | 25.38626 | 53.77440 | 26930 ft | 471 kts | 283° |
| 2026-05-07 17:03 | 25.39375 | 53.73907 | 27055 ft | 474 kts | 283° |
| 2026-05-07 17:04 | 25.40125 | 53.70351 | 27181 ft | 476 kts | 283° |
| 2026-05-07 17:04 | 25.40874 | 53.66776 | 27306 ft | 477 kts | 283° |
| 2026-05-07 17:04 | 25.41659 | 53.63208 | 27428 ft | 479 kts | 287° |
| 2026-05-07 17:04 | 25.42925 | 53.59798 | 27552 ft | 480 kts | 298° |
| 2026-05-07 17:05 | 25.44773 | 53.56718 | 27678 ft | 482 kts | 309° |
| 2026-05-07 17:05 | 25.47139 | 53.54089 | 27804 ft | 483 kts | 319° |
| 2026-05-07 17:05 | 25.49718 | 53.51705 | 27931 ft | 484 kts | 320° |
| 2026-05-07 17:05 | 25.52301 | 53.49317 | 28054 ft | 484 kts | 320° |
| 2026-05-07 17:06 | 25.54883 | 53.46922 | 28181 ft | 484 kts | 319° |
| 2026-05-07 17:06 | 25.57463 | 53.44517 | 28306 ft | 485 kts | 319° |
| 2026-05-07 17:06 | 25.60009 | 53.42137 | 28433 ft | 485 kts | 319° |
| 2026-05-07 17:06 | 25.62586 | 53.39721 | 28554 ft | 485 kts | 319° |
| 2026-05-07 17:07 | 25.65145 | 53.37269 | 28678 ft | 485 kts | 318° |
| 2026-05-07 17:07 | 25.67674 | 53.34801 | 28805 ft | 485 kts | 318° |
| 2026-05-07 17:07 | 25.70190 | 53.32318 | 28928 ft | 485 kts | 317° |
| 2026-05-07 17:07 | 25.72708 | 53.29824 | 29050 ft | 485 kts | 317° |
| 2026-05-07 17:08 | 25.75222 | 53.27336 | 29177 ft | 484 kts | 318° |
| 2026-05-07 17:08 | 25.77748 | 53.24850 | 29302 ft | 484 kts | 318° |
| 2026-05-07 17:08 | 25.80274 | 53.22377 | 29427 ft | 484 kts | 318° |
| 2026-05-07 17:08 | 25.82746 | 53.19835 | 29545 ft | 484 kts | 312° |
| 2026-05-07 17:09 | 25.84768 | 53.16859 | 29693 ft | 482 kts | 300° |
| 2026-05-07 17:09 | 25.86263 | 53.13526 | 29795 ft | 483 kts | 294° |
| 2026-05-07 17:09 | 25.89004 | 53.06793 | 29816 ft | 480 kts | 294° |
| 2026-05-07 17:10 | 25.91745 | 53.00023 | 29810 ft | 481 kts | 294° |
| 2026-05-07 17:10 | 25.94491 | 52.93248 | 29816 ft | 481 kts | 294° |
| 2026-05-07 17:11 | 25.97242 | 52.86475 | 29816 ft | 481 kts | 294° |
| 2026-05-07 17:11 | 25.99989 | 52.79694 | 29814 ft | 481 kts | 294° |
| 2026-05-07 17:12 | 26.02742 | 52.72922 | 29818 ft | 481 kts | 295° |
| 2026-05-07 17:12 | 26.05699 | 52.66247 | 29815 ft | 481 kts | 297° |
| 2026-05-07 17:13 | 26.08764 | 52.59635 | 29815 ft | 481 kts | 297° |
| 2026-05-07 17:13 | 26.11782 | 52.53035 | 29821 ft | 481 kts | 296° |
| 2026-05-07 17:14 | 26.14777 | 52.46375 | 29817 ft | 481 kts | 296° |
| 2026-05-07 17:14 | 26.17769 | 52.39709 | 29822 ft | 481 kts | 296° |
| 2026-05-07 17:15 | 26.20760 | 52.33037 | 29823 ft | 481 kts | 296° |
| 2026-05-07 17:15 | 26.23736 | 52.26356 | 29821 ft | 481 kts | 296° |
| 2026-05-07 17:16 | 26.26621 | 52.19678 | 29826 ft | 481 kts | 295° |
| 2026-05-07 17:16 | 26.29500 | 52.12950 | 29820 ft | 481 kts | 295° |
| 2026-05-07 17:17 | 26.32394 | 52.06227 | 29825 ft | 481 kts | 295° |
| 2026-05-07 17:17 | 26.35301 | 51.99506 | 29820 ft | 481 kts | 295° |
| 2026-05-07 17:18 | 26.38081 | 51.92719 | 29821 ft | 481 kts | 290° |
| 2026-05-07 17:18 | 26.40429 | 51.85729 | 29823 ft | 481 kts | 290° |
| 2026-05-07 17:19 | 26.42775 | 51.78740 | 29823 ft | 481 kts | 290° |
| 2026-05-07 17:19 | 26.45100 | 51.71797 | 29820 ft | 481 kts | 290° |
| 2026-05-07 17:20 | 26.47439 | 51.64809 | 29818 ft | 481 kts | 290° |
| 2026-05-07 17:20 | 26.49776 | 51.57812 | 29819 ft | 481 kts | 290° |
| 2026-05-07 17:21 | 26.52099 | 51.50812 | 29814 ft | 481 kts | 290° |
| 2026-05-07 17:21 | 26.54417 | 51.43812 | 29817 ft | 481 kts | 290° |
| 2026-05-07 17:22 | 26.56737 | 51.36810 | 29817 ft | 481 kts | 290° |
| 2026-05-07 17:22 | 26.59048 | 51.29836 | 29811 ft | 469 kts | 290° |
| 2026-05-07 17:23 | 26.60159 | 51.26485 | 29809 ft | 450 kts | 290° |
| 2026-05-07 17:23 | 26.61223 | 51.23274 | 29809 ft | 434 kts | 290° |
| 2026-05-07 17:23 | 26.63289 | 51.17029 | 29815 ft | 426 kts | 290° |
| 2026-05-07 17:24 | 26.65009 | 51.11824 | 29816 ft | 436 kts | 290° |
| 2026-05-07 17:24 | 26.67150 | 51.05341 | 29818 ft | 452 kts | 290° |
| 2026-05-07 17:25 | 26.69361 | 50.98637 | 29815 ft | 466 kts | 290° |
| 2026-05-07 17:25 | 26.71572 | 50.91734 | 29814 ft | 476 kts | 289° |
| 2026-05-07 17:26 | 26.73800 | 50.84704 | 29814 ft | 483 kts | 289° |
| 2026-05-07 17:26 | 26.76065 | 50.77589 | 29815 ft | 486 kts | 289° |
| 2026-05-07 17:27 | 26.78334 | 50.70456 | 29809 ft | 486 kts | 289° |
| 2026-05-07 17:27 | 26.80591 | 50.63368 | 29812 ft | 487 kts | 290° |
| 2026-05-07 17:28 | 26.82971 | 50.56276 | 29815 ft | 486 kts | 291° |
| 2026-05-07 17:28 | 26.85407 | 50.49205 | 29814 ft | 486 kts | 291° |
| 2026-05-07 17:29 | 26.88103 | 50.42272 | 29807 ft | 486 kts | 301° |
| 2026-05-07 17:29 | 26.91662 | 50.35820 | 29809 ft | 487 kts | 301° |
| 2026-05-07 17:30 | 26.95214 | 50.29365 | 29807 ft | 487 kts | 301° |
| 2026-05-07 17:30 | 26.98759 | 50.22891 | 29808 ft | 487 kts | 301° |
| 2026-05-07 17:31 | 27.02298 | 50.16421 | 29808 ft | 487 kts | 301° |
| 2026-05-07 17:31 | 27.06124 | 50.10164 | 29808 ft | 487 kts | 310° |
| 2026-05-07 17:32 | 27.10535 | 50.04391 | 29807 ft | 487 kts | 310° |
| 2026-05-07 17:32 | 27.14908 | 49.98644 | 29808 ft | 487 kts | 310° |
| 2026-05-07 17:33 | 27.19307 | 49.92849 | 29809 ft | 487 kts | 310° |
| 2026-05-07 17:33 | 27.23703 | 49.87051 | 29810 ft | 487 kts | 310° |
| 2026-05-07 17:34 | 27.28101 | 49.81246 | 29812 ft | 487 kts | 310° |
| 2026-05-07 17:34 | 27.32495 | 49.75428 | 29813 ft | 488 kts | 310° |
| 2026-05-07 17:35 | 27.36884 | 49.69610 | 29813 ft | 487 kts | 310° |
| 2026-05-07 17:35 | 27.41274 | 49.63791 | 29813 ft | 487 kts | 310° |
| 2026-05-07 17:36 | 27.45663 | 49.57971 | 29811 ft | 487 kts | 310° |
| 2026-05-07 17:36 | 27.50459 | 49.52599 | 29811 ft | 488 kts | 321° |
| 2026-05-07 17:37 | 27.55739 | 49.47878 | 29808 ft | 488 kts | 321° |
| 2026-05-07 17:37 | 27.61053 | 49.43121 | 29805 ft | 488 kts | 321° |
| 2026-05-07 17:38 | 27.66363 | 49.38360 | 29805 ft | 487 kts | 321° |
| 2026-05-07 17:38 | 27.71663 | 49.33583 | 29804 ft | 487 kts | 321° |
| 2026-05-07 17:39 | 27.76962 | 49.28804 | 29803 ft | 487 kts | 321° |
| 2026-05-07 17:39 | 27.82269 | 49.24034 | 29803 ft | 488 kts | 321° |
| 2026-05-07 17:40 | 27.87608 | 49.19307 | 29800 ft | 488 kts | 326° |
| 2026-05-07 17:40 | 27.93458 | 49.15408 | 29803 ft | 488 kts | 329° |
| 2026-05-07 17:41 | 27.99332 | 49.11558 | 29804 ft | 488 kts | 329° |
| 2026-05-07 17:41 | 28.05218 | 49.07698 | 29804 ft | 488 kts | 329° |
| 2026-05-07 17:42 | 28.11091 | 49.03836 | 29808 ft | 489 kts | 329° |
| 2026-05-07 17:42 | 28.16935 | 48.99986 | 29811 ft | 487 kts | 329° |
| 2026-05-07 17:43 | 28.19844 | 48.98068 | 29807 ft | 469 kts | 329° |
| 2026-05-07 17:43 | 28.22574 | 48.96270 | 29729 ft | 451 kts | 329° |
| 2026-05-07 17:43 | 28.25244 | 48.94512 | 29260 ft | 438 kts | 329° |
| 2026-05-07 17:43 | 28.27854 | 48.92793 | 28392 ft | 430 kts | 329° |
| 2026-05-07 17:44 | 28.30418 | 48.91105 | 27499 ft | 423 kts | 329° |
| 2026-05-07 17:44 | 28.32944 | 48.89442 | 26609 ft | 417 kts | 329° |
| 2026-05-07 17:44 | 28.35434 | 48.87798 | 25719 ft | 411 kts | 329° |
| 2026-05-07 17:44 | 28.37886 | 48.86172 | 24842 ft | 405 kts | 329° |
| 2026-05-07 17:45 | 28.40306 | 48.84565 | 23983 ft | 400 kts | 329° |
| 2026-05-07 17:45 | 28.42687 | 48.82981 | 23124 ft | 394 kts | 329° |
| 2026-05-07 17:45 | 28.45040 | 48.81415 | 22278 ft | 389 kts | 329° |
| 2026-05-07 17:45 | 28.47362 | 48.79873 | 21446 ft | 384 kts | 329° |
| 2026-05-07 17:46 | 28.49655 | 48.78351 | 20617 ft | 379 kts | 329° |
| 2026-05-07 17:46 | 28.51918 | 48.76853 | 19793 ft | 374 kts | 329° |
| 2026-05-07 17:46 | 28.54151 | 48.75373 | 18970 ft | 369 kts | 329° |
| 2026-05-07 17:46 | 28.56341 | 48.73883 | 18166 ft | 364 kts | 324° |
| 2026-05-07 17:47 | 28.58226 | 48.72003 | 17386 ft | 358 kts | 310° |
| 2026-05-07 17:47 | 28.59726 | 48.69810 | 16589 ft | 354 kts | 306° |
| 2026-05-07 17:47 | 28.61203 | 48.67585 | 15809 ft | 350 kts | 307° |
| 2026-05-07 17:47 | 28.62665 | 48.65388 | 15255 ft | 345 kts | 307° |
| 2026-05-07 17:48 | 28.64109 | 48.63218 | 14837 ft | 343 kts | 307° |
| 2026-05-07 17:48 | 28.65545 | 48.61058 | 14438 ft | 341 kts | 307° |
| 2026-05-07 17:48 | 28.66971 | 48.58910 | 14035 ft | 339 kts | 306° |
| 2026-05-07 17:48 | 28.68387 | 48.56773 | 13629 ft | 337 kts | 306° |
| 2026-05-07 17:49 | 28.69792 | 48.54654 | 13227 ft | 334 kts | 307° |
| 2026-05-07 17:49 | 28.71185 | 48.52559 | 12994 ft | 327 kts | 307° |
| 2026-05-07 17:49 | 28.72535 | 48.50528 | 12869 ft | 316 kts | 307° |
| 2026-05-07 17:49 | 28.73839 | 48.48560 | 12738 ft | 306 kts | 306° |
| 2026-05-07 17:50 | 28.75078 | 48.46633 | 12613 ft | 297 kts | 305° |
| 2026-05-07 17:50 | 28.76270 | 48.44739 | 12404 ft | 290 kts | 305° |
| 2026-05-07 17:50 | 28.77419 | 48.42894 | 12118 ft | 288 kts | 304° |
| 2026-05-07 17:50 | 28.78576 | 48.41035 | 11798 ft | 287 kts | 304° |
| 2026-05-07 17:51 | 28.79730 | 48.39186 | 11476 ft | 285 kts | 305° |
| 2026-05-07 17:51 | 28.80876 | 48.37351 | 11142 ft | 284 kts | 305° |
| 2026-05-07 17:51 | 28.82019 | 48.35526 | 10809 ft | 282 kts | 305° |
| 2026-05-07 17:51 | 28.83158 | 48.33707 | 10471 ft | 281 kts | 305° |
| 2026-05-07 17:52 | 28.84289 | 48.31900 | 10129 ft | 279 kts | 305° |
| 2026-05-07 17:52 | 28.85412 | 48.30103 | 9799 ft | 278 kts | 305° |
| 2026-05-07 17:52 | 28.86531 | 48.28311 | 9446 ft | 276 kts | 305° |
| 2026-05-07 17:52 | 28.87639 | 48.26537 | 9095 ft | 275 kts | 305° |
| 2026-05-07 17:53 | 28.88743 | 48.24769 | 8640 ft | 271 kts | 305° |
| 2026-05-07 17:53 | 28.89833 | 48.23026 | 8020 ft | 269 kts | 305° |
| 2026-05-07 17:53 | 28.90920 | 48.21292 | 7406 ft | 267 kts | 305° |
| 2026-05-07 17:53 | 28.91999 | 48.19574 | 6788 ft | 265 kts | 305° |
| 2026-05-07 17:54 | 28.93062 | 48.17876 | 6244 ft | 260 kts | 305° |
| 2026-05-07 17:54 | 28.94088 | 48.16235 | 5883 ft | 257 kts | 305° |
| 2026-05-07 17:54 | 28.95122 | 48.14581 | 5469 ft | 248 kts | 305° |
| 2026-05-07 17:54 | 28.96110 | 48.13001 | 5148 ft | 243 kts | 305° |
| 2026-05-07 17:55 | 28.97223 | 48.11557 | 4834 ft | 242 kts | 321° |
| 2026-05-07 17:55 | 28.98655 | 48.10551 | 4510 ft | 242 kts | 330° |
| 2026-05-07 17:55 | 29.00111 | 48.09650 | 4176 ft | 241 kts | 330° |
| 2026-05-07 17:55 | 29.01582 | 48.08738 | 3841 ft | 240 kts | 330° |
| 2026-05-07 17:56 | 29.03045 | 48.07828 | 3512 ft | 239 kts | 330° |
| 2026-05-07 17:56 | 29.04502 | 48.06920 | 3180 ft | 238 kts | 330° |
| 2026-05-07 17:56 | 29.05919 | 48.05962 | 2950 ft | 233 kts | 327° |
| 2026-05-07 17:56 | 29.07304 | 48.05066 | 2925 ft | 227 kts | 332° |
| 2026-05-07 17:57 | 29.08737 | 48.04275 | 2813 ft | 228 kts | 334° |
| 2026-05-07 17:57 | 29.09685 | 48.03773 | 2659 ft | 227 kts | 334° |
| 2026-05-07 17:57 | 29.11527 | 48.02801 | 2309 ft | 209 kts | 334° |
| 2026-05-07 17:57 | 29.12762 | 48.02148 | 2038 ft | 183 kts | 334° |
| 2026-05-07 17:58 | 29.13852 | 48.01570 | 1792 ft | 164 kts | 334° |
| 2026-05-07 17:58 | 29.14844 | 48.01044 | 1583 ft | 152 kts | 334° |
| 2026-05-07 17:58 | 29.15785 | 48.00544 | 1384 ft | 147 kts | 333° |
| 2026-05-07 17:58 | 29.16706 | 48.00055 | 1195 ft | 145 kts | 334° |
| 2026-05-07 17:59 | 29.17620 | 47.99570 | 1004 ft | 144 kts | 334° |
| 2026-05-07 17:59 | 29.18531 | 47.99086 | 812 ft | 144 kts | 334° |
| 2026-05-07 17:59 | 29.19440 | 47.98603 | 622 ft | 143 kts | 334° |
| 2026-05-07 17:59 | 29.20341 | 47.98125 | 428 ft | 143 kts | 334° |
| 2026-05-07 18:00 | 29.21245 | 47.97644 | 241 ft | 143 kts | 334° |
| 2026-05-07 18:00 | 29.22121 | 47.97175 | 168 ft | 128 kts | 334° |
| 2026-05-07 18:00 | 29.22823 | 47.96798 | 162 ft | 96 kts | 334° |
| 2026-05-07 18:00 | 29.23194 | 47.96609 | 164 ft | 11 kts | 340° |
| 2026-05-07 18:01 | 29.23252 | 47.96598 | 164 ft | 13 kts | 356° |
| 2026-05-07 18:01 | 29.23367 | 47.96614 | 164 ft | 20 kts | 20° |
| 2026-05-07 18:01 | 29.23440 | 47.96643 | 162 ft | 15 kts | 19° |
| 2026-05-07 18:01 | 29.23481 | 47.96659 | 162 ft | 0 kts | 17° |
| 2026-05-07 18:03 | 29.23544 | 47.96661 | 163 ft | 17 kts | 352° |
| 2026-05-07 18:03 | 29.23658 | 47.96610 | 164 ft | 18 kts | 334° |
| 2026-05-07 18:03 | 29.23777 | 47.96545 | 164 ft | 20 kts | 335° |
| 2026-05-07 18:03 | 29.23910 | 47.96475 | 164 ft | 22 kts | 335° |
| 2026-05-07 18:04 | 29.24055 | 47.96397 | 164 ft | 24 kts | 335° |
| 2026-05-07 18:04 | 29.24212 | 47.96315 | 164 ft | 26 kts | 335° |
| 2026-05-07 18:04 | 29.24377 | 47.96226 | 164 ft | 27 kts | 335° |
| 2026-05-07 18:04 | 29.24552 | 47.96134 | 165 ft | 28 kts | 335° |
| 2026-05-07 18:05 | 29.24728 | 47.96041 | 165 ft | 26 kts | 334° |
| 2026-05-07 18:05 | 29.24877 | 47.95959 | 165 ft | 23 kts | 336° |
| 2026-05-07 18:05 | 29.24959 | 47.95917 | 165 ft | 0 kts | 335° |
| 2026-05-07 18:06 | 29.24996 | 47.95903 | 165 ft | 8 kts | 351° |
| 2026-05-07 18:06 | 29.25034 | 47.95932 | 166 ft | 8 kts | 56° |
| 2026-05-07 18:06 | 29.25077 | 47.95991 | 167 ft | 7 kts | 63° |
| 2026-05-07 18:07 | 29.25084 | 47.96007 | 167 ft | 0 kts | 64° |
| 2026-05-07 18:07 | 29.25086 | 47.96013 | 167 ft | 0 kts | 65° |